createdAt,value
2023-04-16T00:00:24.195Z,6.30
2023-04-16T00:02:52.423Z,6.30
2023-04-16T00:05:20.547Z,6.40
2023-04-16T00:07:48.599Z,6.40
2023-04-16T00:10:16.494Z,6.30
2023-04-16T00:12:45.897Z,6.30
2023-04-16T00:15:13.903Z,6.30
2023-04-16T00:17:41.964Z,6.30
2023-04-16T00:20:11.413Z,6.40
2023-04-16T00:22:39.333Z,6.30
2023-04-16T00:25:07.687Z,6.20
2023-04-16T00:27:35.723Z,6.30
2023-04-16T00:30:05.998Z,6.30
2023-04-16T00:32:33.997Z,6.30
2023-04-16T00:35:01.904Z,6.30
2023-04-16T00:37:29.818Z,6.30
2023-04-16T00:39:57.756Z,6.30
2023-04-16T00:42:25.731Z,6.30
2023-04-16T00:44:53.685Z,6.30
2023-04-16T00:47:23.426Z,6.30
2023-04-16T00:49:51.740Z,6.30
2023-04-16T00:52:19.723Z,6.30
2023-04-16T00:54:48.168Z,6.30
2023-04-16T00:57:16.231Z,6.30
2023-04-16T00:59:45.217Z,6.30
2023-04-16T01:02:15.715Z,6.30
2023-04-16T01:04:45.136Z,6.30
2023-04-16T01:07:13.196Z,6.30
2023-04-16T01:09:41.409Z,6.30
2023-04-16T01:12:09.559Z,6.30
2023-04-16T01:14:37.615Z,6.30
2023-04-16T01:17:05.608Z,6.30
2023-04-16T01:19:36.260Z,6.30
2023-04-16T01:22:06.117Z,6.30
2023-04-16T01:24:35.060Z,6.30
2023-04-16T01:27:03.021Z,6.30
2023-04-16T01:29:31.058Z,6.30
2023-04-16T01:31:59.020Z,6.30
2023-04-16T01:34:27.014Z,6.30
2023-04-16T01:36:54.944Z,6.30
2023-04-16T01:39:24.232Z,6.30
2023-04-16T01:41:52.139Z,6.30
2023-04-16T01:44:20.277Z,6.20
2023-04-16T01:46:48.218Z,6.30
2023-04-16T01:49:16.478Z,6.30
2023-04-16T01:51:44.417Z,6.30
2023-04-16T01:54:12.321Z,6.30
2023-04-16T01:56:41.653Z,6.30
2023-04-16T01:59:09.760Z,6.30
2023-04-16T02:01:37.870Z,6.30
2023-04-16T02:04:06.580Z,6.30
2023-04-16T02:06:34.571Z,6.30
2023-04-16T02:09:02.563Z,6.30
2023-04-16T02:11:30.539Z,6.40
2023-04-16T02:13:59.861Z,6.30
2023-04-16T02:16:27.869Z,6.30
2023-04-16T02:18:55.844Z,6.30
2023-04-16T02:21:23.785Z,6.30
2023-04-16T02:23:52.041Z,6.30
2023-04-16T02:26:20.175Z,6.30
2023-04-16T02:28:48.103Z,6.30
2023-04-16T02:31:19.484Z,6.30
2023-04-16T02:33:47.586Z,6.30
2023-04-16T02:36:15.558Z,6.30
2023-04-16T02:38:43.536Z,6.30
2023-04-16T02:41:11.470Z,6.30
2023-04-16T02:43:39.484Z,6.30
2023-04-16T02:46:07.646Z,6.30
2023-04-16T02:48:36.985Z,6.30
2023-04-16T02:51:05.012Z,6.30
2023-04-16T02:53:33.077Z,6.30
2023-04-16T02:56:01.146Z,6.30
2023-04-16T02:58:29.095Z,6.20
2023-04-16T03:00:57.111Z,6.30
2023-04-16T03:03:25.217Z,6.30
2023-04-16T03:05:54.543Z,6.20
2023-04-16T03:08:22.780Z,6.20
2023-04-16T03:10:50.706Z,6.10
2023-04-16T03:13:18.593Z,6.20
2023-04-16T03:15:50.140Z,6.20
2023-04-16T03:18:18.212Z,6.20
2023-04-16T03:20:46.164Z,6.20
2023-04-16T03:23:15.535Z,6.20
2023-04-16T03:25:46.555Z,6.20
2023-04-16T03:28:14.521Z,6.20
2023-04-16T03:30:42.523Z,6.20
2023-04-16T03:33:10.514Z,6.30
2023-04-16T03:35:38.403Z,6.30
2023-04-16T03:38:06.302Z,6.30
2023-04-16T03:40:35.682Z,6.30
2023-04-16T03:43:03.663Z,6.20
2023-04-16T03:45:31.675Z,6.30
2023-04-16T03:47:59.675Z,6.30
2023-04-16T03:50:27.649Z,6.30
2023-04-16T03:52:55.609Z,6.30
2023-04-16T03:55:23.496Z,6.30
2023-04-16T03:57:52.767Z,6.30
2023-04-16T04:00:21.208Z,6.30
2023-04-16T04:02:49.330Z,6.30
2023-04-16T04:05:17.579Z,6.30
2023-04-16T04:07:45.471Z,6.30
2023-04-16T04:10:13.447Z,6.30
2023-04-16T04:12:41.328Z,6.30
2023-04-16T04:15:12.001Z,6.20
2023-04-16T04:17:39.991Z,6.30
2023-04-16T04:20:08.909Z,6.20
2023-04-16T04:22:36.885Z,6.20
2023-04-16T04:25:05.009Z,6.20
2023-04-16T04:27:32.895Z,6.20
2023-04-16T04:30:00.800Z,6.30
2023-04-16T04:32:30.108Z,6.20
2023-04-16T04:34:58.124Z,6.20
2023-04-16T04:37:26.043Z,6.20
2023-04-16T04:39:53.916Z,6.20
2023-04-16T04:42:22.469Z,6.30
2023-04-16T04:44:50.444Z,6.20
2023-04-16T04:47:18.464Z,6.20
2023-04-16T04:49:47.788Z,6.20
2023-04-16T04:52:15.743Z,6.30
2023-04-16T04:54:43.746Z,6.30
2023-04-16T04:57:11.690Z,6.20
2023-04-16T04:59:39.644Z,6.20
2023-04-16T05:02:07.673Z,6.20
2023-04-16T05:04:35.778Z,6.20
2023-04-16T05:07:05.111Z,6.20
2023-04-16T05:09:33.074Z,6.20
2023-04-16T05:12:01.007Z,6.20
2023-04-16T05:14:28.920Z,6.20
2023-04-16T05:16:56.908Z,6.20
2023-04-16T05:19:24.826Z,6.20
2023-04-16T05:21:52.740Z,6.30
2023-04-16T05:24:23.839Z,6.20
2023-04-16T05:26:51.830Z,6.30
2023-04-16T05:29:19.792Z,6.30
2023-04-16T05:31:47.674Z,6.20
2023-04-16T05:34:15.776Z,6.20
2023-04-16T05:36:43.813Z,6.20
2023-04-16T05:39:11.901Z,6.20
2023-04-16T05:41:41.324Z,6.20
2023-04-16T05:44:09.313Z,6.20
2023-04-16T05:46:37.344Z,6.20
2023-04-16T05:49:05.318Z,6.20
2023-04-16T05:51:33.302Z,6.20
2023-04-16T05:54:01.278Z,6.20
2023-04-16T05:56:29.208Z,6.20
2023-04-16T05:58:58.528Z,6.20
2023-04-16T06:01:26.699Z,6.20
2023-04-16T06:03:54.881Z,6.30
2023-04-16T06:06:22.918Z,6.20
2023-04-16T06:08:50.899Z,6.20
2023-04-16T06:11:18.891Z,6.20
2023-04-16T06:13:47.075Z,6.20
2023-04-16T06:16:16.443Z,6.20
2023-04-16T06:18:44.433Z,6.30
2023-04-16T06:21:12.500Z,6.30
2023-04-16T06:23:40.531Z,6.30
2023-04-16T06:26:08.628Z,6.30
2023-04-16T06:28:36.746Z,6.30
2023-04-16T06:31:05.330Z,6.30
2023-04-16T06:33:35.043Z,6.30
2023-04-16T06:36:02.948Z,6.30
2023-04-16T06:38:30.943Z,6.30
2023-04-16T06:40:59.535Z,6.30
2023-04-16T06:43:27.529Z,6.30
2023-04-16T06:45:55.635Z,6.30
2023-04-16T06:48:23.609Z,6.30
2023-04-16T06:50:53.015Z,6.30
2023-04-16T06:53:20.971Z,6.30
2023-04-16T06:55:48.978Z,6.30
2023-04-16T06:58:16.929Z,6.30
2023-04-16T07:00:44.846Z,6.30
2023-04-16T07:03:13.022Z,6.30
2023-04-16T07:05:41.235Z,6.20
2023-04-16T07:08:10.889Z,6.30
2023-04-16T07:10:39.481Z,6.30
2023-04-16T07:13:07.403Z,6.30
2023-04-16T07:15:35.362Z,6.30
2023-04-16T07:18:03.372Z,6.30
2023-04-16T07:20:31.353Z,6.30
2023-04-16T07:22:59.426Z,6.40
2023-04-16T07:25:28.689Z,6.30
2023-04-16T07:27:56.875Z,6.40
2023-04-16T07:30:25.034Z,6.30
2023-04-16T07:32:53.306Z,6.30
2023-04-16T07:35:21.328Z,6.30
2023-04-16T07:37:55.099Z,6.40
2023-04-16T07:40:23.157Z,6.40
2023-04-16T07:42:52.547Z,6.40
2023-04-16T07:45:20.572Z,6.40
2023-04-16T07:47:48.678Z,6.50
2023-04-16T07:50:20.265Z,6.50
2023-04-16T07:52:48.300Z,6.50
2023-04-16T07:55:16.247Z,6.40
2023-04-16T07:57:44.170Z,6.40
2023-04-16T08:00:14.316Z,6.40
2023-04-16T08:02:44.241Z,6.40
2023-04-16T08:05:12.568Z,6.40
2023-04-16T08:07:40.577Z,6.50
2023-04-16T08:10:09.827Z,6.50
2023-04-16T08:12:37.794Z,6.50
2023-04-16T08:15:06.866Z,6.50
2023-04-16T08:17:37.778Z,6.60
2023-04-16T08:20:06.854Z,6.60
2023-04-16T08:22:35.019Z,6.60
2023-04-16T08:25:04.720Z,6.50
2023-04-16T08:27:32.633Z,6.50
2023-04-16T08:30:00.663Z,6.60
2023-04-16T08:32:28.681Z,6.60
2023-04-16T08:34:58.684Z,6.60
2023-04-16T08:37:26.847Z,6.60
2023-04-16T08:39:54.846Z,6.70
2023-04-16T08:42:27.111Z,6.70
2023-04-16T08:45:05.190Z,6.60
2023-04-16T08:47:35.563Z,6.60
2023-04-16T08:50:06.935Z,6.60
2023-04-16T08:52:38.700Z,6.60
2023-04-16T08:55:13.131Z,6.70
2023-04-16T08:57:48.208Z,6.70
2023-04-16T09:00:17.812Z,6.70
2023-04-16T09:02:46.181Z,6.70
2023-04-16T09:05:18.918Z,6.70
2023-04-16T09:07:47.857Z,6.70
2023-04-16T09:10:16.871Z,6.70
2023-04-16T09:12:45.415Z,6.70
2023-04-16T09:15:14.764Z,6.70
2023-04-16T09:17:42.746Z,6.70
2023-04-16T09:20:12.634Z,6.70
2023-04-16T09:22:42.232Z,6.70
2023-04-16T09:25:11.035Z,6.60
2023-04-16T09:27:39.499Z,6.70
2023-04-16T09:30:22.014Z,6.70
2023-04-16T09:32:50.541Z,6.80
2023-04-16T09:35:20.088Z,6.90
2023-04-16T09:37:58.377Z,6.90
2023-04-16T09:40:27.593Z,6.90
2023-04-16T09:42:58.607Z,6.90
2023-04-16T09:45:26.845Z,6.90
2023-04-16T09:48:04.488Z,6.90
2023-04-16T09:50:32.544Z,6.90
2023-04-16T09:53:04.519Z,6.90
2023-04-16T09:55:33.626Z,6.80
2023-04-16T09:58:02.158Z,6.80
2023-04-16T10:00:30.904Z,6.90
2023-04-16T10:03:06.307Z,6.90
2023-04-16T10:05:35.061Z,7.00
2023-04-16T10:08:11.954Z,7.10
2023-04-16T10:10:40.168Z,7.10
2023-04-16T10:13:08.388Z,7.20
2023-04-16T10:15:36.617Z,7.30
2023-04-16T10:18:05.934Z,7.20
2023-04-16T10:20:33.992Z,7.30
2023-04-16T10:23:05.052Z,7.30
2023-04-16T10:25:33.604Z,7.40
2023-04-16T10:28:02.043Z,7.30
2023-04-16T10:30:30.568Z,7.30
2023-04-16T10:33:00.574Z,7.30
2023-04-16T10:35:28.762Z,7.30
2023-04-16T10:37:58.042Z,7.30
2023-04-16T10:40:29.527Z,7.30
2023-04-16T10:42:58.740Z,7.30
2023-04-16T10:45:33.652Z,7.20
2023-04-16T10:48:06.215Z,7.20
2023-04-16T10:50:37.792Z,7.20
2023-04-16T10:53:24.224Z,7.20
2023-04-16T10:56:12.103Z,7.10
2023-04-16T10:58:40.532Z,7.20
2023-04-16T11:01:12.310Z,7.10
2023-04-16T11:03:43.932Z,7.20
2023-04-16T11:06:17.403Z,7.20
2023-04-16T11:08:54.638Z,7.20
2023-04-16T11:11:24.698Z,7.30
2023-04-16T11:13:56.883Z,7.20
2023-04-16T11:16:27.090Z,7.20
2023-04-16T11:18:57.104Z,7.10
2023-04-16T11:21:26.724Z,7.20
2023-04-16T11:23:55.098Z,7.20
2023-04-16T11:26:28.689Z,7.20
2023-04-16T11:28:57.536Z,7.30
2023-04-16T11:31:27.263Z,7.30
2023-04-16T11:33:57.854Z,7.30
2023-04-16T11:36:27.843Z,7.30
2023-04-16T11:39:03.830Z,7.40
2023-04-16T11:41:33.226Z,7.30
2023-04-16T11:44:01.389Z,7.30
2023-04-16T11:46:40.613Z,7.30
2023-04-16T11:49:09.048Z,7.40
2023-04-16T11:51:41.542Z,7.30
2023-04-16T11:54:12.092Z,7.30
2023-04-16T11:56:47.941Z,7.30
2023-04-16T11:59:17.260Z,7.30
2023-04-16T12:01:49.400Z,7.30
2023-04-16T12:04:19.756Z,7.30
2023-04-16T12:07:07.304Z,7.30
2023-04-16T12:09:38.678Z,7.30
2023-04-16T12:12:27.262Z,7.40
2023-04-16T12:14:56.997Z,7.40
2023-04-16T12:17:25.621Z,7.30
2023-04-16T12:19:56.746Z,7.30
2023-04-16T12:22:29.557Z,7.40
2023-04-16T12:25:02.847Z,7.30
2023-04-16T12:27:51.451Z,7.40
2023-04-16T12:30:23.004Z,7.40
2023-04-16T12:32:52.849Z,7.40
2023-04-16T12:35:31.461Z,7.40
2023-04-16T12:37:59.559Z,7.40
2023-04-16T12:40:27.714Z,7.40
2023-04-16T12:42:57.417Z,7.50
2023-04-16T12:45:26.673Z,7.50
2023-04-16T12:47:55.870Z,7.50
2023-04-16T12:50:24.085Z,7.60
2023-04-16T12:52:52.100Z,7.60
2023-04-16T12:55:20.635Z,7.60
2023-04-16T12:57:48.846Z,7.60
2023-04-16T13:00:18.717Z,7.50
2023-04-16T13:02:46.990Z,7.60
2023-04-16T13:05:16.589Z,7.60
2023-04-16T13:07:44.697Z,7.60
2023-04-16T13:10:13.269Z,7.60
2023-04-16T13:12:41.307Z,7.50
2023-04-16T13:15:10.608Z,7.50
2023-04-16T13:17:41.133Z,7.50
2023-04-16T13:20:10.093Z,7.50
2023-04-16T13:22:38.137Z,7.60
2023-04-16T13:25:07.063Z,7.70
2023-04-16T13:27:35.046Z,7.80
2023-04-16T13:30:02.999Z,7.70
2023-04-16T13:32:31.236Z,7.70
2023-04-16T13:35:00.739Z,7.60
2023-04-16T13:37:28.657Z,7.60
2023-04-16T13:39:57.366Z,7.70
2023-04-16T13:42:25.463Z,7.70
2023-04-16T13:44:55.029Z,7.80
2023-04-16T13:47:23.500Z,7.80
2023-04-16T13:49:51.486Z,7.80
2023-04-16T13:52:20.821Z,7.80
2023-04-16T13:54:48.717Z,7.80
2023-04-16T13:57:18.050Z,7.70
2023-04-16T13:59:46.145Z,7.70
2023-04-16T14:02:14.531Z,7.80
2023-04-16T14:04:42.552Z,7.80
2023-04-16T14:07:10.573Z,7.70
2023-04-16T14:09:39.833Z,7.70
2023-04-16T14:12:08.419Z,7.60
2023-04-16T14:14:36.650Z,7.60
2023-04-16T14:17:04.689Z,7.60
2023-04-16T14:19:32.643Z,7.60
2023-04-16T14:22:00.630Z,7.50
2023-04-16T14:24:28.598Z,7.60
2023-04-16T14:26:57.922Z,7.50
2023-04-16T14:29:25.936Z,7.50
2023-04-16T14:31:54.042Z,7.50
2023-04-16T14:34:22.084Z,7.50
2023-04-16T14:36:51.916Z,7.50
2023-04-16T14:39:19.987Z,7.50
2023-04-16T14:41:47.954Z,7.50
2023-04-16T14:44:17.315Z,7.40
2023-04-16T14:46:46.536Z,7.50
2023-04-16T14:49:14.945Z,7.40
2023-04-16T14:51:43.724Z,7.50
2023-04-16T14:54:12.029Z,7.40
2023-04-16T14:56:40.072Z,7.40
2023-04-16T14:59:08.446Z,7.50
2023-04-16T15:01:39.771Z,7.50
2023-04-16T15:04:08.150Z,7.50
2023-04-16T15:06:36.545Z,7.40
2023-04-16T15:09:04.935Z,7.40
2023-04-16T15:11:32.937Z,7.40
2023-04-16T15:14:01.152Z,7.40
2023-04-16T15:16:29.201Z,7.40
2023-04-16T15:18:58.535Z,7.40
2023-04-16T15:21:27.936Z,7.40
2023-04-16T15:23:56.169Z,7.40
2023-04-16T15:26:24.170Z,7.40
2023-04-16T15:28:52.104Z,7.40
2023-04-16T15:31:20.910Z,7.40
2023-04-16T15:33:49.167Z,7.40
2023-04-16T15:36:18.586Z,7.40
2023-04-16T15:38:46.636Z,7.40
2023-04-16T15:41:14.652Z,7.40
2023-04-16T15:43:42.606Z,7.40
2023-04-16T15:46:10.832Z,7.40
2023-04-16T15:48:38.844Z,7.40
2023-04-16T15:51:06.862Z,7.40
2023-04-16T15:53:37.181Z,7.40
2023-04-16T15:56:05.367Z,7.40
2023-04-16T15:58:33.290Z,7.40
2023-04-16T16:01:01.234Z,7.30
2023-04-16T16:03:29.607Z,7.30
2023-04-16T16:05:59.400Z,7.40
2023-04-16T16:08:27.585Z,7.30
2023-04-16T16:10:57.094Z,7.40
2023-04-16T16:13:25.095Z,7.40
2023-04-16T16:15:53.082Z,7.40
2023-04-16T16:18:22.010Z,7.40
2023-04-16T16:20:49.928Z,7.40
2023-04-16T16:23:17.910Z,7.40
2023-04-16T16:25:45.921Z,7.40
2023-04-16T16:28:15.282Z,7.40
2023-04-16T16:30:43.293Z,7.40
2023-04-16T16:33:11.532Z,7.40
2023-04-16T16:35:39.520Z,7.40
2023-04-16T16:38:07.749Z,7.40
2023-04-16T16:40:35.993Z,7.40
2023-04-16T16:43:03.973Z,7.40
2023-04-16T16:45:33.340Z,7.30
2023-04-16T16:48:03.408Z,7.40
2023-04-16T16:50:32.596Z,7.40
2023-04-16T16:53:01.006Z,7.40
2023-04-16T16:55:29.051Z,7.40
2023-04-16T16:57:57.096Z,7.30
2023-04-16T17:00:25.506Z,7.30
2023-04-16T17:02:54.914Z,7.30
2023-04-16T17:05:23.243Z,7.30
2023-04-16T17:07:51.384Z,7.40
2023-04-16T17:10:21.239Z,7.30
2023-04-16T17:12:49.657Z,7.40
2023-04-16T17:15:20.507Z,7.40
2023-04-16T17:17:49.770Z,7.30
2023-04-16T17:20:19.895Z,7.30
2023-04-16T17:22:47.972Z,7.40
2023-04-16T17:25:16.031Z,7.40
2023-04-16T17:27:44.102Z,7.40
2023-04-16T17:30:12.632Z,7.40
2023-04-16T17:32:40.681Z,7.30
2023-04-16T17:35:10.018Z,7.40
2023-04-16T17:37:39.386Z,7.40
2023-04-16T17:40:09.617Z,7.40
2023-04-16T17:42:37.851Z,7.40
2023-04-16T17:45:06.525Z,7.40
2023-04-16T17:47:35.826Z,7.40
2023-04-16T17:50:03.961Z,7.40
2023-04-16T17:52:32.057Z,7.40
2023-04-16T17:55:02.115Z,7.40
2023-04-16T17:57:30.602Z,7.40
2023-04-16T17:59:58.623Z,7.40
2023-04-16T18:02:26.903Z,7.40
2023-04-16T18:04:55.127Z,7.40
2023-04-16T18:07:23.190Z,7.40
2023-04-16T18:09:51.231Z,7.40
2023-04-16T18:12:20.621Z,7.40
2023-04-16T18:14:48.621Z,7.40
2023-04-16T18:17:17.766Z,7.40
2023-04-16T18:19:45.766Z,7.40
2023-04-16T18:22:13.777Z,7.40
2023-04-16T18:24:41.836Z,7.40
2023-04-16T18:27:09.795Z,7.40
2023-04-16T18:29:40.444Z,7.40
2023-04-16T18:32:11.667Z,7.40
2023-04-16T18:34:40.562Z,7.40
2023-04-16T18:37:08.610Z,7.40
2023-04-16T18:39:36.938Z,7.40
2023-04-16T18:42:05.215Z,7.40
2023-04-16T18:44:33.356Z,7.40
2023-04-16T18:47:02.872Z,7.40
2023-04-16T18:49:31.094Z,7.40
2023-04-16T18:51:59.054Z,7.40
2023-04-16T18:54:27.652Z,7.40
2023-04-16T18:56:57.070Z,7.40
2023-04-16T18:59:25.884Z,7.40
2023-04-16T19:01:54.098Z,7.40
2023-04-16T19:04:23.645Z,7.40
2023-04-16T19:06:51.988Z,7.40
2023-04-16T19:09:20.349Z,7.40
2023-04-16T19:11:50.493Z,7.40
2023-04-16T19:14:18.616Z,7.40
2023-04-16T19:16:47.489Z,7.40
2023-04-16T19:19:15.794Z,7.40
2023-04-16T19:21:45.163Z,7.40
2023-04-16T19:24:13.090Z,7.40
2023-04-16T19:26:41.061Z,7.40
2023-04-16T19:29:09.223Z,7.40
2023-04-16T19:31:37.503Z,7.40
2023-04-16T19:34:05.657Z,7.40
2023-04-16T19:36:33.697Z,7.30
2023-04-16T19:39:03.738Z,7.30
2023-04-16T19:41:31.718Z,7.40
2023-04-16T19:43:59.851Z,7.40
2023-04-16T19:46:27.830Z,7.40
2023-04-16T19:48:56.788Z,7.40
2023-04-16T19:51:24.881Z,7.40
2023-04-16T19:53:53.802Z,7.40
2023-04-16T19:56:23.169Z,7.40
2023-04-16T19:58:51.130Z,7.40
2023-04-16T20:01:19.130Z,7.40
2023-04-16T20:03:47.113Z,7.30
2023-04-16T20:06:17.383Z,7.40
2023-04-16T20:08:45.875Z,7.40
2023-04-16T20:11:13.940Z,7.30
2023-04-16T20:13:43.358Z,7.30
2023-04-16T20:16:13.621Z,7.30
2023-04-16T20:18:42.477Z,7.30
2023-04-16T20:21:11.805Z,7.30
2023-04-16T20:23:39.746Z,7.40
2023-04-16T20:26:07.853Z,7.40
2023-04-16T20:28:36.116Z,7.40
2023-04-16T20:31:05.510Z,7.30
2023-04-16T20:33:33.616Z,7.40
2023-04-16T20:36:01.569Z,7.40
2023-04-16T20:38:32.404Z,7.40
2023-04-16T20:41:10.193Z,7.40
2023-04-16T20:43:40.635Z,7.40
2023-04-16T20:46:10.642Z,7.40
2023-04-16T20:48:39.595Z,7.30
2023-04-16T20:51:09.327Z,7.30
2023-04-16T20:53:38.156Z,7.30
2023-04-16T20:56:08.935Z,7.40
2023-04-16T20:58:36.881Z,7.30
2023-04-16T21:01:05.911Z,7.40
2023-04-16T21:03:35.924Z,7.40
2023-04-16T21:06:04.623Z,7.40
2023-04-16T21:08:32.540Z,7.30
2023-04-16T21:11:00.618Z,7.40
2023-04-16T21:13:30.052Z,7.30
2023-04-16T21:15:58.009Z,7.30
2023-04-16T21:18:27.264Z,7.30
2023-04-16T21:20:57.061Z,7.40
2023-04-16T21:23:24.951Z,7.40
2023-04-16T21:25:52.927Z,7.30
2023-04-16T21:28:21.052Z,7.30
2023-04-16T21:30:52.204Z,7.30
2023-04-16T21:33:20.341Z,7.30
2023-04-16T21:35:52.292Z,7.30
2023-04-16T21:38:22.152Z,7.30
2023-04-16T21:40:53.775Z,7.30
2023-04-16T21:43:21.922Z,7.30
2023-04-16T21:45:49.943Z,7.30
2023-04-16T21:48:18.050Z,7.30
2023-04-16T21:50:46.167Z,7.30
2023-04-16T21:53:14.389Z,7.20
2023-04-16T21:55:43.712Z,7.30
2023-04-16T21:58:11.680Z,7.30
2023-04-16T22:00:39.823Z,7.20
2023-04-16T22:03:09.007Z,7.20
2023-04-16T22:05:37.261Z,7.20
2023-04-16T22:08:20.994Z,7.20
2023-04-16T22:10:57.035Z,7.30
2023-04-16T22:13:26.174Z,7.20
2023-04-16T22:15:55.134Z,7.20
2023-04-16T22:18:25.812Z,7.20
2023-04-16T22:20:54.967Z,7.20
2023-04-16T22:23:23.161Z,7.20
2023-04-16T22:25:51.809Z,7.20
2023-04-16T22:28:21.161Z,7.20
2023-04-16T22:30:50.357Z,7.20
2023-04-16T22:33:18.516Z,7.20
2023-04-16T22:35:46.946Z,7.20
2023-04-16T22:38:17.262Z,7.20
2023-04-16T22:40:48.068Z,7.10
2023-04-16T22:43:17.713Z,7.20
2023-04-16T22:45:47.214Z,7.20
2023-04-16T22:48:15.482Z,7.20
2023-04-16T22:50:48.371Z,7.10
2023-04-16T22:53:16.394Z,7.10
2023-04-16T22:55:44.588Z,7.10
2023-04-16T22:58:12.571Z,7.10
2023-04-16T23:00:40.511Z,7.10
2023-04-16T23:03:09.962Z,7.10
2023-04-16T23:05:38.184Z,7.10
2023-04-16T23:08:06.546Z,7.10
2023-04-16T23:10:34.554Z,7.10
2023-04-16T23:13:02.633Z,7.10
2023-04-16T23:15:31.193Z,7.10
2023-04-16T23:17:59.431Z,7.10
2023-04-16T23:20:30.526Z,7.10
2023-04-16T23:22:58.519Z,7.00
2023-04-16T23:25:26.513Z,7.00
2023-04-16T23:27:54.494Z,7.00
2023-04-16T23:30:22.609Z,7.00
2023-04-16T23:32:50.661Z,7.10
2023-04-16T23:35:22.827Z,7.10
2023-04-16T23:37:52.373Z,7.00
2023-04-16T23:40:20.396Z,7.10
2023-04-16T23:42:50.769Z,7.10
2023-04-16T23:45:18.824Z,7.10
2023-04-16T23:47:46.953Z,7.10
2023-04-16T23:50:14.991Z,7.10
2023-04-16T23:52:42.939Z,7.00
2023-04-16T23:55:12.441Z,7.00
2023-04-16T23:57:40.343Z,7.00
